createdAt,value
2023-01-19T00:01:39.426Z,-3.40
2023-01-19T00:04:08.679Z,-3.40
2023-01-19T00:06:36.617Z,-3.50
2023-01-19T00:09:05.092Z,-3.60
2023-01-19T00:11:33.069Z,-3.60
2023-01-19T00:14:01.032Z,-3.60
2023-01-19T00:16:29.076Z,-3.60
2023-01-19T00:18:57.179Z,-3.70
2023-01-19T00:21:26.459Z,-3.70
2023-01-19T00:23:54.399Z,-3.80
2023-01-19T00:26:23.011Z,-3.80
2023-01-19T00:28:52.945Z,-3.90
2023-01-19T00:31:21.827Z,-3.80
2023-01-19T00:33:52.529Z,-3.80
2023-01-19T00:36:20.809Z,-3.90
2023-01-19T00:38:50.111Z,-3.90
2023-01-19T00:41:18.351Z,-3.90
2023-01-19T00:43:45.502Z,-3.90
2023-01-19T00:46:13.506Z,-3.90
2023-01-19T00:48:41.450Z,-3.80
2023-01-19T00:51:09.423Z,-3.70
2023-01-19T00:53:37.394Z,-3.70
2023-01-19T00:56:08.018Z,-3.70
2023-01-19T00:58:35.922Z,-3.70
2023-01-19T01:01:04.875Z,-3.70
2023-01-19T01:03:33.438Z,-3.70
2023-01-19T01:06:03.586Z,-3.70
2023-01-19T01:08:31.774Z,-3.70
2023-01-19T01:10:59.779Z,-3.60
2023-01-19T01:13:29.630Z,-3.60
2023-01-19T01:15:58.528Z,-3.70
2023-01-19T01:18:26.845Z,-3.70
2023-01-19T01:21:01.129Z,-3.80
2023-01-19T01:23:29.037Z,-3.80
2023-01-19T01:25:56.965Z,-3.80
2023-01-19T01:28:25.124Z,-3.80
2023-01-19T01:30:56.154Z,-3.90
2023-01-19T01:33:40.866Z,-3.90
2023-01-19T01:36:10.542Z,-3.90
2023-01-19T01:38:38.623Z,-3.90
2023-01-19T01:41:07.210Z,-3.90
2023-01-19T01:43:47.851Z,-3.90
2023-01-19T01:46:19.834Z,-3.90
2023-01-19T01:48:55.972Z,-3.80
2023-01-19T01:51:29.302Z,-3.70
2023-01-19T01:54:09.173Z,-3.60
2023-01-19T01:56:44.765Z,-3.60
2023-01-19T01:59:25.696Z,-3.80
2023-01-19T02:02:16.216Z,-4.00
2023-01-19T02:04:50.109Z,-4.10
2023-01-19T02:07:45.315Z,-4.20
2023-01-19T02:10:30.665Z,-4.20
2023-01-19T02:13:16.693Z,-4.30
2023-01-19T02:15:45.485Z,-4.40
2023-01-19T02:18:15.029Z,-4.30
2023-01-19T02:20:53.499Z,-4.00
2023-01-19T02:23:37.980Z,-4.10
2023-01-19T02:26:09.465Z,-4.00
2023-01-19T02:28:42.768Z,-3.90
2023-01-19T02:31:11.499Z,-3.90
2023-01-19T02:33:39.686Z,-3.90
2023-01-19T02:36:11.624Z,-3.90
2023-01-19T02:38:43.649Z,-3.90
2023-01-19T02:41:15.445Z,-3.90
2023-01-19T02:43:44.923Z,-3.90
2023-01-19T02:46:15.516Z,-4.10
2023-01-19T02:48:43.846Z,-4.50
2023-01-19T02:51:16.954Z,-4.60
2023-01-19T02:54:18.237Z,-4.60
2023-01-19T02:57:18.468Z,-4.50
2023-01-19T03:00:12.780Z,-4.50
2023-01-19T03:03:06.228Z,-4.40
2023-01-19T03:05:52.886Z,-4.60
2023-01-19T03:08:44.975Z,-4.80
2023-01-19T03:11:15.501Z,-4.90
2023-01-19T03:13:50.353Z,-4.80
2023-01-19T03:16:24.312Z,-4.80
2023-01-19T03:18:56.913Z,-4.80
2023-01-19T03:21:28.425Z,-4.80
2023-01-19T03:24:03.044Z,-4.90
2023-01-19T03:26:38.423Z,-4.90
2023-01-19T03:29:11.397Z,-5.00
2023-01-19T03:31:44.259Z,-4.90
2023-01-19T03:34:15.919Z,-4.80
2023-01-19T03:36:50.698Z,-4.80
2023-01-19T03:39:23.339Z,-4.80
2023-01-19T03:41:57.011Z,-4.80
2023-01-19T03:44:28.195Z,-4.70
2023-01-19T03:46:57.918Z,-4.80
2023-01-19T03:49:26.184Z,-4.80
2023-01-19T03:51:58.824Z,-4.70
2023-01-19T03:54:27.121Z,-4.90
2023-01-19T03:56:56.512Z,-4.80
2023-01-19T03:59:24.420Z,-4.90
2023-01-19T04:01:52.367Z,-4.90
2023-01-19T04:04:20.249Z,-4.80
2023-01-19T04:06:48.191Z,-4.70
2023-01-19T04:09:17.528Z,-4.60
2023-01-19T04:11:46.505Z,-4.70
2023-01-19T04:14:15.719Z,-4.60
2023-01-19T04:16:46.051Z,-4.50
2023-01-19T04:19:14.134Z,-4.50
2023-01-19T04:21:42.038Z,-4.40
2023-01-19T04:24:10.788Z,-4.50
2023-01-19T04:26:38.803Z,-4.40
2023-01-19T04:29:06.678Z,-4.40
2023-01-19T04:31:36.858Z,-4.20
2023-01-19T04:34:05.071Z,-4.10
2023-01-19T04:36:33.088Z,-4.10
2023-01-19T04:39:01.022Z,-4.20
2023-01-19T04:41:30.318Z,-4.30
2023-01-19T04:43:59.095Z,-4.20
2023-01-19T04:46:27.042Z,-4.20
2023-01-19T04:48:56.357Z,-4.20
2023-01-19T04:51:24.689Z,-4.10
2023-01-19T04:53:52.618Z,-4.10
2023-01-19T04:56:20.604Z,-4.20
2023-01-19T04:58:48.607Z,-4.40
2023-01-19T05:01:16.684Z,-4.40
2023-01-19T05:03:44.764Z,-4.40
2023-01-19T05:06:16.607Z,-4.60
2023-01-19T05:08:45.432Z,-4.80
2023-01-19T05:11:13.444Z,-4.90
2023-01-19T05:13:41.458Z,-5.00
2023-01-19T05:16:09.760Z,-5.10
2023-01-19T05:18:38.093Z,-5.10
2023-01-19T05:21:07.324Z,-5.00
2023-01-19T05:23:36.556Z,-4.90
2023-01-19T05:26:05.381Z,-4.90
2023-01-19T05:28:35.000Z,-4.90
2023-01-19T05:31:03.047Z,-4.90
2023-01-19T05:33:31.306Z,-4.90
2023-01-19T05:35:59.245Z,-4.90
2023-01-19T05:38:35.308Z,-5.00
2023-01-19T05:41:05.104Z,-5.10
2023-01-19T05:43:33.149Z,-5.20
2023-01-19T05:46:01.374Z,-5.30
2023-01-19T05:48:29.296Z,-5.20
2023-01-19T05:51:01.511Z,-5.20
2023-01-19T05:53:30.068Z,-5.20
2023-01-19T05:56:02.060Z,-5.20
2023-01-19T05:58:31.438Z,-5.10
2023-01-19T06:01:05.465Z,-5.20
2023-01-19T06:03:33.884Z,-5.40
2023-01-19T06:06:03.028Z,-5.60
2023-01-19T06:08:31.034Z,-5.60
2023-01-19T06:10:59.027Z,-5.50
2023-01-19T06:13:26.973Z,-5.30
2023-01-19T06:16:03.020Z,-5.20
2023-01-19T06:18:31.570Z,-5.00
2023-01-19T06:20:59.609Z,-5.00
2023-01-19T06:23:27.812Z,-5.00
2023-01-19T06:25:55.706Z,-4.90
2023-01-19T06:28:24.305Z,-4.80
2023-01-19T06:30:54.843Z,-4.70
2023-01-19T06:33:27.836Z,-4.60
2023-01-19T06:35:56.117Z,-4.50
2023-01-19T06:38:24.508Z,-4.50
2023-01-19T06:40:55.407Z,-4.40
2023-01-19T06:43:23.538Z,-4.30
2023-01-19T06:45:51.746Z,-4.20
2023-01-19T06:48:20.472Z,-4.00
2023-01-19T06:50:50.650Z,-3.90
2023-01-19T06:53:20.819Z,-3.80
2023-01-19T06:55:49.213Z,-3.60
2023-01-19T06:58:17.417Z,-3.50
2023-01-19T07:00:45.454Z,-3.40
2023-01-19T07:03:21.379Z,-3.30
2023-01-19T07:05:53.429Z,-3.20
2023-01-19T07:08:21.687Z,-3.10
2023-01-19T07:11:24.891Z,-3.10
2023-01-19T07:13:40.383Z,-2.90
2023-01-19T07:16:12.058Z,-2.80
2023-01-19T07:18:41.732Z,-2.80
2023-01-19T07:21:11.043Z,-2.70
2023-01-19T07:23:38.945Z,-2.60
2023-01-19T07:26:07.301Z,-2.50
2023-01-19T07:28:36.923Z,-2.50
2023-01-19T07:31:05.190Z,-2.50
2023-01-19T07:33:33.179Z,-2.50
2023-01-19T07:36:01.119Z,-2.60
2023-01-19T07:38:30.425Z,-2.50
2023-01-19T07:41:01.874Z,-2.50
2023-01-19T07:43:29.935Z,-2.40
2023-01-19T07:45:58.351Z,-2.30
2023-01-19T07:48:26.439Z,-2.20
2023-01-19T07:50:54.937Z,-2.10
2023-01-19T07:53:23.119Z,-2.00
2023-01-19T07:55:57.415Z,-2.00
2023-01-19T07:58:26.390Z,-1.90
2023-01-19T08:00:54.748Z,-1.90
2023-01-19T08:03:23.137Z,-1.90
2023-01-19T08:05:52.880Z,-1.90
2023-01-19T08:08:21.063Z,-1.80
2023-01-19T08:10:52.030Z,-1.80
2023-01-19T08:13:21.369Z,-1.70
2023-01-19T08:15:53.138Z,-1.70
2023-01-19T08:18:21.807Z,-1.60
2023-01-19T08:20:49.776Z,-1.60
2023-01-19T08:23:20.705Z,-1.60
2023-01-19T08:25:48.704Z,-1.50
2023-01-19T08:28:18.346Z,-1.50
2023-01-19T08:30:54.172Z,-1.50
2023-01-19T08:33:23.166Z,-1.50
2023-01-19T08:35:55.179Z,-1.40
2023-01-19T08:38:23.162Z,-1.40
2023-01-19T08:40:51.195Z,-1.40
2023-01-19T08:43:19.452Z,-1.40
2023-01-19T08:45:53.412Z,-1.40
2023-01-19T08:48:24.827Z,-1.30
2023-01-19T08:50:54.046Z,-1.30
2023-01-19T08:53:23.731Z,-1.30
2023-01-19T08:55:57.327Z,-1.30
2023-01-19T08:58:25.455Z,-1.20
2023-01-19T09:00:55.086Z,-1.20
2023-01-19T09:03:23.821Z,-1.20
2023-01-19T09:05:51.860Z,-1.10
2023-01-19T09:08:20.063Z,-1.10
2023-01-19T09:10:50.961Z,-1.10
2023-01-19T09:13:20.375Z,-1.10
2023-01-19T09:15:49.140Z,-1.00
2023-01-19T09:18:21.488Z,-1.00
2023-01-19T09:20:51.334Z,-1.00
2023-01-19T09:23:22.718Z,-1.00
2023-01-19T09:25:57.493Z,-1.00
2023-01-19T09:28:25.565Z,-1.00
2023-01-19T09:30:56.097Z,-1.00
2023-01-19T09:33:25.621Z,-1.00
2023-01-19T09:35:53.624Z,-1.00
2023-01-19T09:38:22.462Z,-1.00
2023-01-19T09:40:53.369Z,-1.00
2023-01-19T09:43:36.681Z,-1.00
2023-01-19T09:46:11.472Z,-1.00
2023-01-19T09:48:47.966Z,-1.00
2023-01-19T09:51:24.864Z,-1.00
2023-01-19T09:54:11.698Z,-1.00
2023-01-19T09:56:40.155Z,-0.90
2023-01-19T09:59:22.195Z,-0.90
2023-01-19T10:02:07.832Z,-0.90
2023-01-19T10:04:42.110Z,-0.90
2023-01-19T10:07:32.315Z,-0.90
2023-01-19T10:10:19.865Z,-0.90
2023-01-19T10:13:10.897Z,-0.90
2023-01-19T10:15:50.239Z,-0.90
2023-01-19T10:18:25.220Z,-0.90
2023-01-19T10:21:04.621Z,-0.90
2023-01-19T10:23:45.734Z,-0.80
2023-01-19T10:26:19.289Z,-0.80
2023-01-19T10:28:51.349Z,-0.80
2023-01-19T10:31:24.558Z,-0.80
2023-01-19T10:33:54.444Z,-0.80
2023-01-19T10:36:33.538Z,-0.70
2023-01-19T10:39:01.634Z,-0.70
2023-01-19T10:41:41.614Z,-0.80
2023-01-19T10:44:10.888Z,-0.80
2023-01-19T10:46:45.988Z,-0.70
2023-01-19T10:49:28.094Z,-0.70
2023-01-19T10:52:00.014Z,-0.60
2023-01-19T10:54:31.805Z,-0.60
2023-01-19T10:57:03.731Z,-0.70
2023-01-19T10:59:36.023Z,-0.70
2023-01-19T11:02:19.060Z,-0.70
2023-01-19T11:04:50.153Z,-0.70
2023-01-19T11:07:23.912Z,-0.70
2023-01-19T11:10:14.189Z,-0.60
2023-01-19T11:12:44.610Z,-0.60
2023-01-19T11:15:17.510Z,-0.60
2023-01-19T11:17:48.566Z,-0.60
2023-01-19T11:20:24.177Z,-0.50
2023-01-19T11:23:08.762Z,-0.60
2023-01-19T11:25:37.953Z,-0.60
2023-01-19T11:28:06.752Z,-0.60
2023-01-19T11:30:36.318Z,-0.60
2023-01-19T11:33:06.358Z,-0.60
2023-01-19T11:35:40.829Z,-0.60
2023-01-19T11:38:19.560Z,-0.60
2023-01-19T11:40:55.901Z,-0.60
2023-01-19T11:43:43.360Z,-0.60
2023-01-19T11:46:17.053Z,-0.60
2023-01-19T11:48:56.662Z,-0.60
2023-01-19T11:51:30.179Z,-0.60
2023-01-19T11:54:00.270Z,-0.60
2023-01-19T11:56:30.458Z,-0.50
2023-01-19T11:58:58.617Z,-0.50
2023-01-19T12:01:32.498Z,-0.50
2023-01-19T12:04:08.108Z,-0.50
2023-01-19T12:06:41.786Z,-0.50
2023-01-19T12:09:21.025Z,-0.50
2023-01-19T12:11:56.300Z,-0.50
2023-01-19T12:14:29.820Z,-0.50
2023-01-19T12:17:04.083Z,-0.50
2023-01-19T12:19:43.773Z,-0.50
2023-01-19T12:22:16.981Z,-0.40
2023-01-19T12:24:55.440Z,-0.40
2023-01-19T12:27:39.846Z,-0.40
2023-01-19T12:30:20.949Z,-0.40
2023-01-19T12:32:51.202Z,-0.40
2023-01-19T12:35:59.573Z,-0.40
2023-01-19T12:38:49.206Z,-0.40
2023-01-19T12:41:26.650Z,-0.40
2023-01-19T12:44:31.715Z,-0.30
2023-01-19T12:47:20.145Z,-0.30
2023-01-19T12:49:51.464Z,-0.30
2023-01-19T12:52:34.629Z,-0.20
2023-01-19T12:55:16.480Z,-0.20
2023-01-19T12:57:57.547Z,-0.20
2023-01-19T13:00:33.782Z,-0.20
2023-01-19T13:03:04.021Z,-0.20
2023-01-19T13:05:59.305Z,-0.20
2023-01-19T13:09:04.308Z,-0.20
2023-01-19T13:11:34.615Z,-0.20
2023-01-19T13:14:37.477Z,-0.20
2023-01-19T13:17:33.001Z,-0.20
2023-01-19T13:20:23.761Z,-0.20
2023-01-19T13:23:25.284Z,-0.10
2023-01-19T13:26:07.318Z,-0.10
2023-01-19T13:28:42.461Z,-0.10
2023-01-19T13:31:13.941Z,-0.10
2023-01-19T13:33:50.392Z,-0.10
2023-01-19T13:36:26.545Z,-0.10
2023-01-19T13:38:56.243Z,-0.10
2023-01-19T13:41:30.896Z,0.00
2023-01-19T13:44:04.407Z,0.00
2023-01-19T13:46:34.703Z,0.00
2023-01-19T13:49:13.129Z,0.00
2023-01-19T13:51:41.198Z,0.00
2023-01-19T13:54:17.498Z,0.00
2023-01-19T13:56:50.128Z,0.10
2023-01-19T13:59:18.282Z,0.10
2023-01-19T14:01:49.210Z,0.10
2023-01-19T14:04:30.441Z,0.10
2023-01-19T14:07:03.163Z,0.20
2023-01-19T14:09:31.468Z,0.10
2023-01-19T14:12:14.009Z,0.10
2023-01-19T14:14:43.520Z,0.10
2023-01-19T14:17:24.778Z,0.20
2023-01-19T14:19:56.867Z,0.20
2023-01-19T14:22:40.925Z,0.20
2023-01-19T14:25:45.096Z,0.20
2023-01-19T14:28:30.263Z,0.20
2023-01-19T14:31:01.017Z,0.20
2023-01-19T14:33:43.534Z,0.20
2023-01-19T14:36:25.470Z,0.20
2023-01-19T14:38:56.402Z,0.20
2023-01-19T14:41:30.076Z,0.20
2023-01-19T14:43:59.911Z,0.20
2023-01-19T14:46:28.143Z,0.20
2023-01-19T14:49:06.480Z,0.20
2023-01-19T14:51:34.721Z,0.20
2023-01-19T14:54:04.835Z,0.20
2023-01-19T14:56:35.719Z,0.20
2023-01-19T14:59:11.647Z,0.20
2023-01-19T15:01:39.618Z,0.20
2023-01-19T15:04:09.097Z,0.20
2023-01-19T15:06:45.742Z,0.20
2023-01-19T15:09:15.151Z,0.20
2023-01-19T15:11:45.141Z,0.20
2023-01-19T15:14:16.178Z,0.20
2023-01-19T15:16:44.773Z,0.20
2023-01-19T15:19:16.911Z,0.20
2023-01-19T15:21:48.711Z,0.20
2023-01-19T15:24:18.033Z,0.20
2023-01-19T15:26:46.491Z,0.20
2023-01-19T15:29:22.836Z,0.20
2023-01-19T15:31:51.188Z,0.20
2023-01-19T15:34:20.542Z,0.20
2023-01-19T15:36:48.437Z,0.20
2023-01-19T15:39:16.366Z,0.20
2023-01-19T15:41:44.375Z,0.20
2023-01-19T15:44:12.526Z,0.20
2023-01-19T15:46:40.500Z,0.20
2023-01-19T15:49:08.412Z,0.20
2023-01-19T15:51:38.185Z,0.20
2023-01-19T15:54:06.313Z,0.20
2023-01-19T15:56:34.457Z,0.20
2023-01-19T15:59:03.116Z,0.30
2023-01-19T16:01:32.765Z,0.30
2023-01-19T16:04:02.761Z,0.20
2023-01-19T16:06:31.782Z,0.20
2023-01-19T16:09:01.772Z,0.30
2023-01-19T16:11:32.514Z,0.30
2023-01-19T16:14:01.174Z,0.30
2023-01-19T16:16:29.244Z,0.30
2023-01-19T16:18:58.177Z,0.40
2023-01-19T16:21:27.879Z,0.30
2023-01-19T16:23:56.601Z,0.30
2023-01-19T16:26:29.905Z,0.30
2023-01-19T16:29:00.560Z,0.30
2023-01-19T16:31:29.651Z,0.30
2023-01-19T16:33:57.764Z,0.30
2023-01-19T16:36:29.506Z,0.30
2023-01-19T16:39:00.561Z,0.30
2023-01-19T16:41:29.889Z,0.30
2023-01-19T16:44:00.373Z,0.30
2023-01-19T16:46:33.825Z,0.40
2023-01-19T16:49:04.971Z,0.40
2023-01-19T16:51:33.599Z,0.40
2023-01-19T16:54:01.511Z,0.40
2023-01-19T16:56:30.917Z,0.50
2023-01-19T16:59:00.921Z,0.40
2023-01-19T17:01:30.104Z,0.40
2023-01-19T17:03:58.219Z,0.40
2023-01-19T17:06:26.797Z,0.40
2023-01-19T17:08:55.008Z,0.40
2023-01-19T17:11:26.314Z,0.40
2023-01-19T17:14:00.074Z,0.40
2023-01-19T17:16:30.843Z,0.40
2023-01-19T17:19:00.974Z,0.40
2023-01-19T17:21:29.688Z,0.30
2023-01-19T17:23:59.281Z,0.30
2023-01-19T17:26:30.785Z,0.30
2023-01-19T17:29:06.270Z,0.30
2023-01-19T17:31:35.046Z,0.30
2023-01-19T17:34:04.193Z,0.20
2023-01-19T17:36:33.958Z,0.30
2023-01-19T17:39:07.286Z,0.30
2023-01-19T17:41:36.663Z,0.30
2023-01-19T17:44:07.860Z,0.30
2023-01-19T17:46:38.940Z,0.30
2023-01-19T17:49:09.153Z,0.30
2023-01-19T17:51:38.714Z,0.30
2023-01-19T17:54:06.864Z,0.30
2023-01-19T17:56:37.512Z,0.40
2023-01-19T17:59:08.107Z,0.40
2023-01-19T18:01:40.320Z,0.40
2023-01-19T18:04:09.868Z,0.40
2023-01-19T18:06:38.572Z,0.40
2023-01-19T18:09:07.444Z,0.40
2023-01-19T18:11:39.727Z,0.40
2023-01-19T18:14:09.064Z,0.40
2023-01-19T18:16:37.027Z,0.50
2023-01-19T18:19:05.245Z,0.40
2023-01-19T18:21:33.231Z,0.50
2023-01-19T18:24:03.513Z,0.50
2023-01-19T18:26:33.875Z,0.50
2023-01-19T18:29:01.903Z,0.50
2023-01-19T18:31:31.830Z,0.50
2023-01-19T18:34:00.178Z,0.50
2023-01-19T18:36:28.436Z,0.50
2023-01-19T18:38:56.465Z,0.50
2023-01-19T18:41:24.496Z,0.50
2023-01-19T18:43:54.476Z,0.50
2023-01-19T18:46:25.431Z,0.50
2023-01-19T18:48:54.797Z,0.50
2023-01-19T18:51:22.984Z,0.50
2023-01-19T18:53:50.873Z,0.50
2023-01-19T18:56:19.160Z,0.50
2023-01-19T18:58:47.565Z,0.50
2023-01-19T19:01:23.377Z,0.50
2023-01-19T19:03:51.616Z,0.50
2023-01-19T19:06:22.030Z,0.50
2023-01-19T19:08:51.785Z,0.50
2023-01-19T19:11:21.085Z,0.60
2023-01-19T19:13:55.405Z,0.60
2023-01-19T19:16:23.499Z,0.60
2023-01-19T19:18:51.532Z,0.60
2023-01-19T19:21:24.319Z,0.70
2023-01-19T19:23:54.199Z,0.70
2023-01-19T19:26:23.319Z,0.70
2023-01-19T19:28:51.280Z,0.70
2023-01-19T19:31:22.491Z,0.70
2023-01-19T19:33:51.789Z,0.70
2023-01-19T19:36:22.717Z,0.70
2023-01-19T19:38:51.471Z,0.70
2023-01-19T19:41:22.586Z,0.70
2023-01-19T19:43:50.931Z,0.70
2023-01-19T19:46:21.980Z,0.70
2023-01-19T19:48:50.707Z,0.70
2023-01-19T19:51:23.463Z,0.70
2023-01-19T19:53:54.973Z,0.70
2023-01-19T19:56:25.302Z,0.70
2023-01-19T19:58:55.570Z,0.70
2023-01-19T20:01:28.515Z,0.70
2023-01-19T20:03:59.889Z,0.70
2023-01-19T20:06:29.289Z,0.70
2023-01-19T20:08:58.628Z,0.70
2023-01-19T20:11:28.834Z,0.60
2023-01-19T20:13:57.295Z,0.60
2023-01-19T20:16:25.583Z,0.60
2023-01-19T20:18:55.310Z,0.60
2023-01-19T20:21:27.707Z,0.60
2023-01-19T20:24:01.327Z,0.60
2023-01-19T20:26:33.629Z,0.60
2023-01-19T20:29:07.645Z,0.70
2023-01-19T20:31:39.178Z,0.70
2023-01-19T20:34:23.795Z,0.70
2023-01-19T20:36:53.825Z,0.70
2023-01-19T20:39:24.791Z,0.70
2023-01-19T20:41:53.423Z,0.70
2023-01-19T20:44:23.875Z,0.70
2023-01-19T20:46:52.969Z,0.70
2023-01-19T20:49:21.457Z,0.70
2023-01-19T20:51:51.169Z,0.70
2023-01-19T20:54:22.102Z,0.70
2023-01-19T20:56:51.665Z,0.80
2023-01-19T20:59:20.014Z,0.80
2023-01-19T21:01:49.216Z,0.90
2023-01-19T21:04:18.163Z,0.90
2023-01-19T21:06:46.375Z,0.90
2023-01-19T21:09:14.348Z,0.90
2023-01-19T21:11:42.289Z,0.90
2023-01-19T21:14:11.745Z,0.90
2023-01-19T21:16:39.700Z,0.90
2023-01-19T21:19:07.891Z,0.90
2023-01-19T21:21:37.219Z,0.90
2023-01-19T21:24:06.166Z,0.80
2023-01-19T21:26:34.384Z,0.80
2023-01-19T21:29:04.098Z,0.70
2023-01-19T21:31:33.412Z,0.70
2023-01-19T21:34:01.390Z,0.70
2023-01-19T21:36:29.318Z,0.70
2023-01-19T21:39:00.496Z,0.60
2023-01-19T21:41:30.012Z,0.60
2023-01-19T21:43:58.508Z,0.60
2023-01-19T21:46:29.438Z,0.50
2023-01-19T21:49:00.668Z,0.50
2023-01-19T21:51:29.356Z,0.50
2023-01-19T21:53:59.608Z,0.50
2023-01-19T21:56:29.302Z,0.40
2023-01-19T21:58:59.445Z,0.40
2023-01-19T22:01:27.478Z,0.40
2023-01-19T22:03:58.225Z,0.40
2023-01-19T22:06:28.056Z,0.40
2023-01-19T22:08:57.819Z,0.40
2023-01-19T22:11:26.221Z,0.40
2023-01-19T22:13:54.713Z,0.40
2023-01-19T22:16:24.379Z,0.40
2023-01-19T22:18:56.309Z,0.40
2023-01-19T22:21:28.232Z,0.40
2023-01-19T22:23:59.004Z,0.50
2023-01-19T22:26:27.920Z,0.50
2023-01-19T22:28:57.398Z,0.50
2023-01-19T22:31:30.469Z,0.50
2023-01-19T22:34:01.278Z,0.50
2023-01-19T22:36:33.949Z,0.60
2023-01-19T22:39:05.613Z,0.50
2023-01-19T22:41:36.359Z,0.50
2023-01-19T22:44:07.755Z,0.50
2023-01-19T22:46:37.924Z,0.50
2023-01-19T22:49:07.469Z,0.50
2023-01-19T22:51:39.416Z,0.50
2023-01-19T22:54:08.080Z,0.60
2023-01-19T22:56:38.561Z,0.60
2023-01-19T22:59:07.957Z,0.60
2023-01-19T23:01:39.478Z,0.60
2023-01-19T23:04:09.381Z,0.60
2023-01-19T23:06:39.556Z,0.60
2023-01-19T23:09:12.273Z,0.60
2023-01-19T23:11:42.911Z,0.60
2023-01-19T23:14:16.147Z,0.60
2023-01-19T23:16:44.093Z,0.60
2023-01-19T23:19:14.109Z,0.70
2023-01-19T23:21:44.834Z,0.60
2023-01-19T23:24:13.413Z,0.60
2023-01-19T23:26:41.329Z,0.60
2023-01-19T23:29:13.635Z,0.60
2023-01-19T23:31:45.971Z,0.60
2023-01-19T23:34:14.780Z,0.60
2023-01-19T23:36:45.288Z,0.60
2023-01-19T23:39:16.794Z,0.60
2023-01-19T23:41:44.868Z,0.60
2023-01-19T23:44:13.164Z,0.60
2023-01-19T23:46:41.201Z,0.50
2023-01-19T23:49:17.107Z,0.50
2023-01-19T23:51:53.125Z,0.50
2023-01-19T23:54:21.119Z,0.60
2023-01-19T23:56:49.023Z,0.50
2023-01-19T23:59:17.362Z,0.50
